sensor_id;sensor_type;location;lat;lon;timestamp;P1;durP1;ratioP1;P2;durP2;ratioP2
66972;SDS011;53902;51.466;-2.586;2022-12-18T00:01:38;7.40;;;4.50;;
66972;SDS011;53902;51.466;-2.586;2022-12-18T00:04:04;7.55;;;6.35;;
66972;SDS011;53902;51.466;-2.586;2022-12-18T00:06:30;10.82;;;6.68;;
66972;SDS011;53902;51.466;-2.586;2022-12-18T00:08:58;6.65;;;5.30;;
66972;SDS011;53902;51.466;-2.586;2022-12-18T00:11:25;9.63;;;6.50;;
66972;SDS011;53902;51.466;-2.586;2022-12-18T00:13:52;14.88;;;9.13;;
66972;SDS011;53902;51.466;-2.586;2022-12-18T00:16:21;16.23;;;6.43;;
66972;SDS011;53902;51.466;-2.586;2022-12-18T00:18:48;15.02;;;8.55;;
66972;SDS011;53902;51.466;-2.586;2022-12-18T00:21:14;12.52;;;6.78;;
66972;SDS011;53902;51.466;-2.586;2022-12-18T00:23:40;9.93;;;5.35;;
66972;SDS011;53902;51.466;-2.586;2022-12-18T00:26:13;7.05;;;4.22;;
66972;SDS011;53902;51.466;-2.586;2022-12-18T00:28:42;9.40;;;5.13;;
66972;SDS011;53902;51.466;-2.586;2022-12-18T00:31:16;7.85;;;5.53;;
66972;SDS011;53902;51.466;-2.586;2022-12-18T00:33:43;11.23;;;5.55;;
66972;SDS011;53902;51.466;-2.586;2022-12-18T00:36:13;13.43;;;4.95;;
66972;SDS011;53902;51.466;-2.586;2022-12-18T00:38:40;10.98;;;6.38;;
66972;SDS011;53902;51.466;-2.586;2022-12-18T00:41:06;10.75;;;4.57;;
66972;SDS011;53902;51.466;-2.586;2022-12-18T00:43:32;9.67;;;5.53;;
66972;SDS011;53902;51.466;-2.586;2022-12-18T00:45:58;8.35;;;4.80;;
66972;SDS011;53902;51.466;-2.586;2022-12-18T00:48:23;6.28;;;4.93;;
66972;SDS011;53902;51.466;-2.586;2022-12-18T00:50:49;8.48;;;5.15;;
66972;SDS011;53902;51.466;-2.586;2022-12-18T00:53:15;9.02;;;5.15;;
66972;SDS011;53902;51.466;-2.586;2022-12-18T00:55:41;6.80;;;4.20;;
66972;SDS011;53902;51.466;-2.586;2022-12-18T00:58:08;7.53;;;5.03;;
66972;SDS011;53902;51.466;-2.586;2022-12-18T01:00:34;6.28;;;3.55;;
66972;SDS011;53902;51.466;-2.586;2022-12-18T01:03:00;8.25;;;5.93;;
66972;SDS011;53902;51.466;-2.586;2022-12-18T01:05:25;11.18;;;5.15;;
66972;SDS011;53902;51.466;-2.586;2022-12-18T01:07:51;15.35;;;5.00;;
66972;SDS011;53902;51.466;-2.586;2022-12-18T01:10:16;10.23;;;5.70;;
66972;SDS011;53902;51.466;-2.586;2022-12-18T01:12:42;8.55;;;5.97;;
66972;SDS011;53902;51.466;-2.586;2022-12-18T01:15:07;18.20;;;7.28;;
66972;SDS011;53902;51.466;-2.586;2022-12-18T01:17:34;19.67;;;8.80;;
66972;SDS011;53902;51.466;-2.586;2022-12-18T01:20:00;21.77;;;9.70;;
66972;SDS011;53902;51.466;-2.586;2022-12-18T01:22:25;17.55;;;9.57;;
66972;SDS011;53902;51.466;-2.586;2022-12-18T01:24:51;10.70;;;7.05;;
66972;SDS011;53902;51.466;-2.586;2022-12-18T01:27:16;12.48;;;6.18;;
66972;SDS011;53902;51.466;-2.586;2022-12-18T01:29:41;8.85;;;6.13;;
66972;SDS011;53902;51.466;-2.586;2022-12-18T01:32:07;11.20;;;6.68;;
66972;SDS011;53902;51.466;-2.586;2022-12-18T01:34:35;14.98;;;5.97;;
66972;SDS011;53902;51.466;-2.586;2022-12-18T01:39:27;8.15;;;5.55;;
66972;SDS011;53902;51.466;-2.586;2022-12-18T01:41:55;11.10;;;6.32;;
66972;SDS011;53902;51.466;-2.586;2022-12-18T01:47:33;7.72;;;4.43;;
66972;SDS011;53902;51.466;-2.586;2022-12-18T01:52:48;8.27;;;5.03;;
66972;SDS011;53902;51.466;-2.586;2022-12-18T01:55:18;11.93;;;5.40;;
66972;SDS011;53902;51.466;-2.586;2022-12-18T01:57:44;9.55;;;5.72;;
66972;SDS011;53902;51.466;-2.586;2022-12-18T02:00:13;7.50;;;5.25;;
66972;SDS011;53902;51.466;-2.586;2022-12-18T02:02:41;7.38;;;5.15;;
66972;SDS011;53902;51.466;-2.586;2022-12-18T02:05:08;10.25;;;6.38;;
66972;SDS011;53902;51.466;-2.586;2022-12-18T02:10:09;8.77;;;4.72;;
66972;SDS011;53902;51.466;-2.586;2022-12-18T02:12:43;4.20;;;3.17;;
66972;SDS011;53902;51.466;-2.586;2022-12-18T02:18:21;4.43;;;3.92;;
66972;SDS011;53902;51.466;-2.586;2022-12-18T02:21:12;7.72;;;4.38;;
66972;SDS011;53902;51.466;-2.586;2022-12-18T02:26:22;8.57;;;5.00;;
66972;SDS011;53902;51.466;-2.586;2022-12-18T02:28:53;7.70;;;4.75;;
66972;SDS011;53902;51.466;-2.586;2022-12-18T02:31:35;4.15;;;3.05;;
66972;SDS011;53902;51.466;-2.586;2022-12-18T02:34:04;5.88;;;4.28;;
66972;SDS011;53902;51.466;-2.586;2022-12-18T02:36:32;12.02;;;8.10;;
66972;SDS011;53902;51.466;-2.586;2022-12-18T02:38:58;14.30;;;7.68;;
66972;SDS011;53902;51.466;-2.586;2022-12-18T02:41:26;16.15;;;7.78;;
66972;SDS011;53902;51.466;-2.586;2022-12-18T02:43:57;23.23;;;7.97;;
66972;SDS011;53902;51.466;-2.586;2022-12-18T02:46:34;6.70;;;5.57;;
66972;SDS011;53902;51.466;-2.586;2022-12-18T02:49:12;10.00;;;5.05;;
66972;SDS011;53902;51.466;-2.586;2022-12-18T02:52:13;5.88;;;4.35;;
66972;SDS011;53902;51.466;-2.586;2022-12-18T02:57:18;7.03;;;5.45;;
66972;SDS011;53902;51.466;-2.586;2022-12-18T03:00:34;10.98;;;5.25;;
66972;SDS011;53902;51.466;-2.586;2022-12-18T03:02:39;9.75;;;5.25;;
66972;SDS011;53902;51.466;-2.586;2022-12-18T03:05:10;11.88;;;5.75;;
66972;SDS011;53902;51.466;-2.586;2022-12-18T03:07:45;13.00;;;5.38;;
66972;SDS011;53902;51.466;-2.586;2022-12-18T03:10:19;12.20;;;5.38;;
66972;SDS011;53902;51.466;-2.586;2022-12-18T03:13:08;9.57;;;4.28;;
66972;SDS011;53902;51.466;-2.586;2022-12-18T03:15:38;7.63;;;4.65;;
66972;SDS011;53902;51.466;-2.586;2022-12-18T03:18:10;10.20;;;5.65;;
66972;SDS011;53902;51.466;-2.586;2022-12-18T03:20:41;7.07;;;5.13;;
66972;SDS011;53902;51.466;-2.586;2022-12-18T03:23:12;9.68;;;4.75;;
66972;SDS011;53902;51.466;-2.586;2022-12-18T03:25:41;6.93;;;3.97;;
66972;SDS011;53902;51.466;-2.586;2022-12-18T03:28:15;11.50;;;4.20;;
66972;SDS011;53902;51.466;-2.586;2022-12-18T03:30:42;8.70;;;4.90;;
66972;SDS011;53902;51.466;-2.586;2022-12-18T03:36:16;6.78;;;4.20;;
66972;SDS011;53902;51.466;-2.586;2022-12-18T03:38:42;24.67;;;4.32;;
66972;SDS011;53902;51.466;-2.586;2022-12-18T03:41:15;4.05;;;2.75;;
66972;SDS011;53902;51.466;-2.586;2022-12-18T03:43:50;4.95;;;3.30;;
66972;SDS011;53902;51.466;-2.586;2022-12-18T03:47:02;5.40;;;3.85;;
66972;SDS011;53902;51.466;-2.586;2022-12-18T03:49:18;14.80;;;4.82;;
66972;SDS011;53902;51.466;-2.586;2022-12-18T03:52:36;7.15;;;3.80;;
66972;SDS011;53902;51.466;-2.586;2022-12-18T03:54:36;5.07;;;3.43;;
66972;SDS011;53902;51.466;-2.586;2022-12-18T03:57:09;6.93;;;4.00;;
66972;SDS011;53902;51.466;-2.586;2022-12-18T03:59:36;3.53;;;2.88;;
66972;SDS011;53902;51.466;-2.586;2022-12-18T04:02:02;5.97;;;4.03;;
66972;SDS011;53902;51.466;-2.586;2022-12-18T04:04:29;5.72;;;3.38;;
66972;SDS011;53902;51.466;-2.586;2022-12-18T04:06:55;4.53;;;3.60;;
66972;SDS011;53902;51.466;-2.586;2022-12-18T04:09:22;5.63;;;3.75;;
66972;SDS011;53902;51.466;-2.586;2022-12-18T04:11:48;5.17;;;3.43;;
66972;SDS011;53902;51.466;-2.586;2022-12-18T04:14:14;10.95;;;4.20;;
66972;SDS011;53902;51.466;-2.586;2022-12-18T04:16:40;8.45;;;4.07;;
66972;SDS011;53902;51.466;-2.586;2022-12-18T04:19:05;14.55;;;3.85;;
66972;SDS011;53902;51.466;-2.586;2022-12-18T04:21:31;6.82;;;4.00;;
66972;SDS011;53902;51.466;-2.586;2022-12-18T04:23:56;23.27;;;5.32;;
66972;SDS011;53902;51.466;-2.586;2022-12-18T04:26:21;6.38;;;3.67;;
66972;SDS011;53902;51.466;-2.586;2022-12-18T04:28:47;10.80;;;5.05;;
66972;SDS011;53902;51.466;-2.586;2022-12-18T04:31:13;4.97;;;3.63;;
66972;SDS011;53902;51.466;-2.586;2022-12-18T04:33:38;8.02;;;4.57;;
66972;SDS011;53902;51.466;-2.586;2022-12-18T04:36:04;6.38;;;3.50;;
66972;SDS011;53902;51.466;-2.586;2022-12-18T04:38:29;6.07;;;3.42;;
66972;SDS011;53902;51.466;-2.586;2022-12-18T04:40:55;6.85;;;3.80;;
66972;SDS011;53902;51.466;-2.586;2022-12-18T04:43:20;8.73;;;4.45;;
66972;SDS011;53902;51.466;-2.586;2022-12-18T04:45:46;7.38;;;4.55;;
66972;SDS011;53902;51.466;-2.586;2022-12-18T04:48:11;5.55;;;3.13;;
66972;SDS011;53902;51.466;-2.586;2022-12-18T04:50:37;8.00;;;4.45;;
66972;SDS011;53902;51.466;-2.586;2022-12-18T04:53:02;9.23;;;4.53;;
66972;SDS011;53902;51.466;-2.586;2022-12-18T04:55:27;8.60;;;4.65;;
66972;SDS011;53902;51.466;-2.586;2022-12-18T04:57:53;7.65;;;4.03;;
66972;SDS011;53902;51.466;-2.586;2022-12-18T05:00:19;7.70;;;4.50;;
66972;SDS011;53902;51.466;-2.586;2022-12-18T05:02:44;7.07;;;4.25;;
66972;SDS011;53902;51.466;-2.586;2022-12-18T05:05:10;8.27;;;4.88;;
66972;SDS011;53902;51.466;-2.586;2022-12-18T05:07:36;10.63;;;4.53;;
66972;SDS011;53902;51.466;-2.586;2022-12-18T05:10:02;6.97;;;4.15;;
66972;SDS011;53902;51.466;-2.586;2022-12-18T05:12:32;8.82;;;5.47;;
66972;SDS011;53902;51.466;-2.586;2022-12-18T05:14:57;6.68;;;4.35;;
66972;SDS011;53902;51.466;-2.586;2022-12-18T05:17:23;8.90;;;5.50;;
66972;SDS011;53902;51.466;-2.586;2022-12-18T05:19:48;10.18;;;4.57;;
66972;SDS011;53902;51.466;-2.586;2022-12-18T05:22:13;10.27;;;5.43;;
66972;SDS011;53902;51.466;-2.586;2022-12-18T05:24:39;11.95;;;5.10;;
66972;SDS011;53902;51.466;-2.586;2022-12-18T05:27:04;9.93;;;5.45;;
66972;SDS011;53902;51.466;-2.586;2022-12-18T05:29:30;10.18;;;5.30;;
66972;SDS011;53902;51.466;-2.586;2022-12-18T05:31:55;9.55;;;5.18;;
66972;SDS011;53902;51.466;-2.586;2022-12-18T05:34:20;12.38;;;5.13;;
66972;SDS011;53902;51.466;-2.586;2022-12-18T05:36:46;8.60;;;4.55;;
66972;SDS011;53902;51.466;-2.586;2022-12-18T05:39:11;9.23;;;4.65;;
66972;SDS011;53902;51.466;-2.586;2022-12-18T05:41:37;12.48;;;4.90;;
66972;SDS011;53902;51.466;-2.586;2022-12-18T05:44:02;7.63;;;4.53;;
66972;SDS011;53902;51.466;-2.586;2022-12-18T05:46:28;9.65;;;5.18;;
66972;SDS011;53902;51.466;-2.586;2022-12-18T05:48:54;10.18;;;5.00;;
66972;SDS011;53902;51.466;-2.586;2022-12-18T05:51:20;9.18;;;4.90;;
66972;SDS011;53902;51.466;-2.586;2022-12-18T05:53:46;8.80;;;5.00;;
66972;SDS011;53902;51.466;-2.586;2022-12-18T05:56:14;9.77;;;4.90;;
66972;SDS011;53902;51.466;-2.586;2022-12-18T05:58:43;11.63;;;5.10;;
66972;SDS011;53902;51.466;-2.586;2022-12-18T06:01:13;11.75;;;4.90;;
66972;SDS011;53902;51.466;-2.586;2022-12-18T06:03:41;9.13;;;4.97;;
66972;SDS011;53902;51.466;-2.586;2022-12-18T06:06:23;9.27;;;4.75;;
66972;SDS011;53902;51.466;-2.586;2022-12-18T06:08:50;19.67;;;5.38;;
66972;SDS011;53902;51.466;-2.586;2022-12-18T06:11:16;9.18;;;4.40;;
66972;SDS011;53902;51.466;-2.586;2022-12-18T06:13:44;11.75;;;5.85;;
66972;SDS011;53902;51.466;-2.586;2022-12-18T06:16:09;10.38;;;5.93;;
66972;SDS011;53902;51.466;-2.586;2022-12-18T06:18:35;14.13;;;5.85;;
66972;SDS011;53902;51.466;-2.586;2022-12-18T06:21:00;8.27;;;5.07;;
66972;SDS011;53902;51.466;-2.586;2022-12-18T06:23:26;10.75;;;5.70;;
66972;SDS011;53902;51.466;-2.586;2022-12-18T06:25:52;10.55;;;5.07;;
66972;SDS011;53902;51.466;-2.586;2022-12-18T06:28:18;9.43;;;4.40;;
66972;SDS011;53902;51.466;-2.586;2022-12-18T06:30:44;7.75;;;5.00;;
66972;SDS011;53902;51.466;-2.586;2022-12-18T06:33:10;10.53;;;5.93;;
66972;SDS011;53902;51.466;-2.586;2022-12-18T06:35:35;7.70;;;4.47;;
66972;SDS011;53902;51.466;-2.586;2022-12-18T06:38:02;14.02;;;5.38;;
66972;SDS011;53902;51.466;-2.586;2022-12-18T06:40:28;17.52;;;6.22;;
66972;SDS011;53902;51.466;-2.586;2022-12-18T06:42:53;14.65;;;5.68;;
66972;SDS011;53902;51.466;-2.586;2022-12-18T06:45:19;12.13;;;5.90;;
66972;SDS011;53902;51.466;-2.586;2022-12-18T06:47:44;8.40;;;4.75;;
66972;SDS011;53902;51.466;-2.586;2022-12-18T06:50:10;10.00;;;5.60;;
66972;SDS011;53902;51.466;-2.586;2022-12-18T06:52:36;10.20;;;5.05;;
66972;SDS011;53902;51.466;-2.586;2022-12-18T06:55:02;9.65;;;4.82;;
66972;SDS011;53902;51.466;-2.586;2022-12-18T06:57:28;7.97;;;4.60;;
66972;SDS011;53902;51.466;-2.586;2022-12-18T06:59:53;9.05;;;5.15;;
66972;SDS011;53902;51.466;-2.586;2022-12-18T07:02:19;12.05;;;5.32;;
66972;SDS011;53902;51.466;-2.586;2022-12-18T07:04:44;10.40;;;5.07;;
66972;SDS011;53902;51.466;-2.586;2022-12-18T07:07:10;13.82;;;4.65;;
66972;SDS011;53902;51.466;-2.586;2022-12-18T07:09:35;6.57;;;4.13;;
66972;SDS011;53902;51.466;-2.586;2022-12-18T07:12:02;9.05;;;4.85;;
66972;SDS011;53902;51.466;-2.586;2022-12-18T07:14:29;7.97;;;5.28;;
66972;SDS011;53902;51.466;-2.586;2022-12-18T07:16:55;9.43;;;5.90;;
66972;SDS011;53902;51.466;-2.586;2022-12-18T07:19:20;12.23;;;4.88;;
66972;SDS011;53902;51.466;-2.586;2022-12-18T07:21:46;8.45;;;4.82;;
66972;SDS011;53902;51.466;-2.586;2022-12-18T07:24:12;11.10;;;5.10;;
66972;SDS011;53902;51.466;-2.586;2022-12-18T07:26:37;8.05;;;4.80;;
66972;SDS011;53902;51.466;-2.586;2022-12-18T07:29:03;8.60;;;4.75;;
66972;SDS011;53902;51.466;-2.586;2022-12-18T07:31:28;10.88;;;5.53;;
66972;SDS011;53902;51.466;-2.586;2022-12-18T07:33:54;9.90;;;6.18;;
66972;SDS011;53902;51.466;-2.586;2022-12-18T07:36:19;12.05;;;5.32;;
66972;SDS011;53902;51.466;-2.586;2022-12-18T07:38:47;13.07;;;6.45;;
66972;SDS011;53902;51.466;-2.586;2022-12-18T07:41:13;13.00;;;5.20;;
66972;SDS011;53902;51.466;-2.586;2022-12-18T07:43:39;13.50;;;5.25;;
66972;SDS011;53902;51.466;-2.586;2022-12-18T07:46:06;8.75;;;4.85;;
66972;SDS011;53902;51.466;-2.586;2022-12-18T07:48:33;17.70;;;6.80;;
66972;SDS011;53902;51.466;-2.586;2022-12-18T07:50:59;10.88;;;5.53;;
66972;SDS011;53902;51.466;-2.586;2022-12-18T07:53:29;10.57;;;4.90;;
66972;SDS011;53902;51.466;-2.586;2022-12-18T07:55:55;11.82;;;5.07;;
66972;SDS011;53902;51.466;-2.586;2022-12-18T07:58:22;12.23;;;5.40;;
66972;SDS011;53902;51.466;-2.586;2022-12-18T08:00:47;9.45;;;5.50;;
66972;SDS011;53902;51.466;-2.586;2022-12-18T08:03:13;11.48;;;6.20;;
66972;SDS011;53902;51.466;-2.586;2022-12-18T08:05:39;7.93;;;5.30;;
66972;SDS011;53902;51.466;-2.586;2022-12-18T08:08:04;8.25;;;4.68;;
66972;SDS011;53902;51.466;-2.586;2022-12-18T08:10:30;8.25;;;5.38;;
66972;SDS011;53902;51.466;-2.586;2022-12-18T08:12:55;11.65;;;4.30;;
66972;SDS011;53902;51.466;-2.586;2022-12-18T08:15:21;11.95;;;6.57;;
66972;SDS011;53902;51.466;-2.586;2022-12-18T08:17:46;9.45;;;4.80;;
66972;SDS011;53902;51.466;-2.586;2022-12-18T08:20:12;9.27;;;5.53;;
66972;SDS011;53902;51.466;-2.586;2022-12-18T08:22:39;8.38;;;4.68;;
66972;SDS011;53902;51.466;-2.586;2022-12-18T08:25:06;7.33;;;4.83;;
66972;SDS011;53902;51.466;-2.586;2022-12-18T08:27:32;8.23;;;4.60;;
66972;SDS011;53902;51.466;-2.586;2022-12-18T08:29:58;13.98;;;5.57;;
66972;SDS011;53902;51.466;-2.586;2022-12-18T08:32:24;12.07;;;4.68;;
66972;SDS011;53902;51.466;-2.586;2022-12-18T08:35:06;8.88;;;4.93;;
66972;SDS011;53902;51.466;-2.586;2022-12-18T08:37:33;11.30;;;5.53;;
66972;SDS011;53902;51.466;-2.586;2022-12-18T08:39:59;8.23;;;4.35;;
66972;SDS011;53902;51.466;-2.586;2022-12-18T08:42:25;10.60;;;5.13;;
66972;SDS011;53902;51.466;-2.586;2022-12-18T08:45:08;10.23;;;5.38;;
66972;SDS011;53902;51.466;-2.586;2022-12-18T08:47:34;8.45;;;5.15;;
66972;SDS011;53902;51.466;-2.586;2022-12-18T08:49:59;11.40;;;5.15;;
66972;SDS011;53902;51.466;-2.586;2022-12-18T08:52:25;15.05;;;5.70;;
66972;SDS011;53902;51.466;-2.586;2022-12-18T08:54:50;9.07;;;5.88;;
66972;SDS011;53902;51.466;-2.586;2022-12-18T08:57:16;10.00;;;5.03;;
66972;SDS011;53902;51.466;-2.586;2022-12-18T08:59:41;14.73;;;6.68;;
66972;SDS011;53902;51.466;-2.586;2022-12-18T09:02:08;38.28;;;10.40;;
66972;SDS011;53902;51.466;-2.586;2022-12-18T09:04:35;19.27;;;8.20;;
66972;SDS011;53902;51.466;-2.586;2022-12-18T09:07:00;15.27;;;6.13;;
66972;SDS011;53902;51.466;-2.586;2022-12-18T09:09:26;10.45;;;4.50;;
66972;SDS011;53902;51.466;-2.586;2022-12-18T09:11:51;10.27;;;4.57;;
66972;SDS011;53902;51.466;-2.586;2022-12-18T09:14:17;9.27;;;4.72;;
66972;SDS011;53902;51.466;-2.586;2022-12-18T09:16:42;8.02;;;4.28;;
66972;SDS011;53902;51.466;-2.586;2022-12-18T09:19:08;8.38;;;5.13;;
66972;SDS011;53902;51.466;-2.586;2022-12-18T09:21:34;9.85;;;4.35;;
66972;SDS011;53902;51.466;-2.586;2022-12-18T09:24:04;11.32;;;4.75;;
66972;SDS011;53902;51.466;-2.586;2022-12-18T09:26:31;8.10;;;5.03;;
66972;SDS011;53902;51.466;-2.586;2022-12-18T09:28:56;9.55;;;4.93;;
66972;SDS011;53902;51.466;-2.586;2022-12-18T09:31:23;7.53;;;4.65;;
66972;SDS011;53902;51.466;-2.586;2022-12-18T09:33:50;12.65;;;5.15;;
66972;SDS011;53902;51.466;-2.586;2022-12-18T09:36:16;8.82;;;4.18;;
66972;SDS011;53902;51.466;-2.586;2022-12-18T09:38:42;9.18;;;4.47;;
66972;SDS011;53902;51.466;-2.586;2022-12-18T09:44:12;8.60;;;4.05;;
66972;SDS011;53902;51.466;-2.586;2022-12-18T09:46:44;7.47;;;4.38;;
66972;SDS011;53902;51.466;-2.586;2022-12-18T09:49:30;7.97;;;4.35;;
66972;SDS011;53902;51.466;-2.586;2022-12-18T09:52:05;11.18;;;4.78;;
66972;SDS011;53902;51.466;-2.586;2022-12-18T09:54:41;7.32;;;4.43;;
66972;SDS011;53902;51.466;-2.586;2022-12-18T09:57:18;7.38;;;3.97;;
66972;SDS011;53902;51.466;-2.586;2022-12-18T09:59:47;8.63;;;5.05;;
66972;SDS011;53902;51.466;-2.586;2022-12-18T10:02:25;9.00;;;4.28;;
66972;SDS011;53902;51.466;-2.586;2022-12-18T10:05:09;11.80;;;4.70;;
66972;SDS011;53902;51.466;-2.586;2022-12-18T10:18:14;8.43;;;4.60;;
66972;SDS011;53902;51.466;-2.586;2022-12-18T10:21:00;7.32;;;4.30;;
66972;SDS011;53902;51.466;-2.586;2022-12-18T10:26:25;7.63;;;4.70;;
66972;SDS011;53902;51.466;-2.586;2022-12-18T10:28:51;18.15;;;5.93;;
66972;SDS011;53902;51.466;-2.586;2022-12-18T10:31:18;7.05;;;4.40;;
66972;SDS011;53902;51.466;-2.586;2022-12-18T10:33:45;12.60;;;5.40;;
66972;SDS011;53902;51.466;-2.586;2022-12-18T10:36:11;9.07;;;4.68;;
66972;SDS011;53902;51.466;-2.586;2022-12-18T10:38:37;5.63;;;3.45;;
66972;SDS011;53902;51.466;-2.586;2022-12-18T10:41:08;11.05;;;5.20;;
66972;SDS011;53902;51.466;-2.586;2022-12-18T10:46:44;11.90;;;5.20;;
66972;SDS011;53902;51.466;-2.586;2022-12-18T10:49:28;9.70;;;5.05;;
66972;SDS011;53902;51.466;-2.586;2022-12-18T10:55:01;9.45;;;6.05;;
66972;SDS011;53902;51.466;-2.586;2022-12-18T10:57:36;7.60;;;5.47;;
66972;SDS011;53902;51.466;-2.586;2022-12-18T11:02:53;14.48;;;5.43;;
66972;SDS011;53902;51.466;-2.586;2022-12-18T11:07:56;12.95;;;5.57;;
66972;SDS011;53902;51.466;-2.586;2022-12-18T11:10:25;11.93;;;5.70;;
66972;SDS011;53902;51.466;-2.586;2022-12-18T11:15:55;12.38;;;4.40;;
66972;SDS011;53902;51.466;-2.586;2022-12-18T11:18:39;8.45;;;5.07;;
66972;SDS011;53902;51.466;-2.586;2022-12-18T11:21:09;13.23;;;5.22;;
66972;SDS011;53902;51.466;-2.586;2022-12-18T11:23:35;11.05;;;5.50;;
66972;SDS011;53902;51.466;-2.586;2022-12-18T11:26:04;14.30;;;5.95;;
66972;SDS011;53902;51.466;-2.586;2022-12-18T11:28:38;13.18;;;6.10;;
66972;SDS011;53902;51.466;-2.586;2022-12-18T11:34:01;8.15;;;5.18;;
66972;SDS011;53902;51.466;-2.586;2022-12-18T11:36:46;18.88;;;6.75;;
66972;SDS011;53902;51.466;-2.586;2022-12-18T11:39:17;11.85;;;5.75;;
66972;SDS011;53902;51.466;-2.586;2022-12-18T11:42:45;8.55;;;4.88;;
66972;SDS011;53902;51.466;-2.586;2022-12-18T11:49:59;13.30;;;6.05;;
66972;SDS011;53902;51.466;-2.586;2022-12-18T11:52:37;13.20;;;6.20;;
66972;SDS011;53902;51.466;-2.586;2022-12-18T11:55:07;11.98;;;5.85;;
66972;SDS011;53902;51.466;-2.586;2022-12-18T11:57:49;12.63;;;6.18;;
66972;SDS011;53902;51.466;-2.586;2022-12-18T12:00:18;10.20;;;5.53;;
66972;SDS011;53902;51.466;-2.586;2022-12-18T12:02:59;14.70;;;5.05;;
66972;SDS011;53902;51.466;-2.586;2022-12-18T12:05:44;12.23;;;6.40;;
66972;SDS011;53902;51.466;-2.586;2022-12-18T12:11:40;10.75;;;5.88;;
66972;SDS011;53902;51.466;-2.586;2022-12-18T12:34:56;7.30;;;3.92;;
66972;SDS011;53902;51.466;-2.586;2022-12-18T12:40:35;8.07;;;4.28;;
66972;SDS011;53902;51.466;-2.586;2022-12-18T12:50:56;5.10;;;3.50;;
66972;SDS011;53902;51.466;-2.586;2022-12-18T12:53:26;7.00;;;4.00;;
66972;SDS011;53902;51.466;-2.586;2022-12-18T12:55:55;8.50;;;4.22;;
66972;SDS011;53902;51.466;-2.586;2022-12-18T12:58:26;16.90;;;7.45;;
66972;SDS011;53902;51.466;-2.586;2022-12-18T13:01:08;19.30;;;8.30;;
66972;SDS011;53902;51.466;-2.586;2022-12-18T13:09:12;20.65;;;8.85;;
66972;SDS011;53902;51.466;-2.586;2022-12-18T13:11:47;10.68;;;6.22;;
66972;SDS011;53902;51.466;-2.586;2022-12-18T13:14:33;26.77;;;12.30;;
66972;SDS011;53902;51.466;-2.586;2022-12-18T13:28:12;20.77;;;8.52;;
66972;SDS011;53902;51.466;-2.586;2022-12-18T13:51:44;3.72;;;2.45;;
66972;SDS011;53902;51.466;-2.586;2022-12-18T13:54:35;5.80;;;3.15;;
66972;SDS011;53902;51.466;-2.586;2022-12-18T13:57:22;6.40;;;2.95;;
66972;SDS011;53902;51.466;-2.586;2022-12-18T13:59:49;7.47;;;3.30;;
66972;SDS011;53902;51.466;-2.586;2022-12-18T14:02:16;5.43;;;2.97;;
66972;SDS011;53902;51.466;-2.586;2022-12-18T14:04:45;4.00;;;2.50;;
66972;SDS011;53902;51.466;-2.586;2022-12-18T14:07:21;4.25;;;2.70;;
66972;SDS011;53902;51.466;-2.586;2022-12-18T14:10:32;2.03;;;1.83;;
66972;SDS011;53902;51.466;-2.586;2022-12-18T14:12:40;2.53;;;1.67;;
66972;SDS011;53902;51.466;-2.586;2022-12-18T14:18:17;3.53;;;2.38;;
66972;SDS011;53902;51.466;-2.586;2022-12-18T14:20:58;4.53;;;1.85;;
66972;SDS011;53902;51.466;-2.586;2022-12-18T14:23:29;5.28;;;2.40;;
66972;SDS011;53902;51.466;-2.586;2022-12-18T14:26:00;3.22;;;2.00;;
66972;SDS011;53902;51.466;-2.586;2022-12-18T14:28:26;3.17;;;1.15;;
66972;SDS011;53902;51.466;-2.586;2022-12-18T14:30:52;1.00;;;0.80;;
66972;SDS011;53902;51.466;-2.586;2022-12-18T14:33:19;2.50;;;1.27;;
66972;SDS011;53902;51.466;-2.586;2022-12-18T14:35:53;1.35;;;0.80;;
66972;SDS011;53902;51.466;-2.586;2022-12-18T14:41:09;0.82;;;0.82;;
66972;SDS011;53902;51.466;-2.586;2022-12-18T14:43:37;1.00;;;0.90;;
66972;SDS011;53902;51.466;-2.586;2022-12-18T14:46:26;0.75;;;0.75;;
66972;SDS011;53902;51.466;-2.586;2022-12-18T14:48:59;42.28;;;3.03;;
66972;SDS011;53902;51.466;-2.586;2022-12-18T14:54:16;10.95;;;4.22;;
66972;SDS011;53902;51.466;-2.586;2022-12-18T14:56:46;23.90;;;2.95;;
66972;SDS011;53902;51.466;-2.586;2022-12-18T15:04:42;7.50;;;3.67;;
66972;SDS011;53902;51.466;-2.586;2022-12-18T15:10:02;6.43;;;2.05;;
66972;SDS011;53902;51.466;-2.586;2022-12-18T15:23:25;5.88;;;2.00;;
66972;SDS011;53902;51.466;-2.586;2022-12-18T15:25:59;6.43;;;2.08;;
66972;SDS011;53902;51.466;-2.586;2022-12-18T15:28:28;37.88;;;2.90;;
66972;SDS011;53902;51.466;-2.586;2022-12-18T16:06:35;57.97;;;9.80;;
66972;SDS011;53902;51.466;-2.586;2022-12-18T16:23:40;11.30;;;5.68;;
66972;SDS011;53902;51.466;-2.586;2022-12-18T16:53:04;106.57;;;3.90;;
66972;SDS011;53902;51.466;-2.586;2022-12-18T17:02:24;18.88;;;2.58;;
66972;SDS011;53902;51.466;-2.586;2022-12-18T17:05:19;5.13;;;2.00;;
66972;SDS011;53902;51.466;-2.586;2022-12-18T17:07:44;2.88;;;1.95;;
66972;SDS011;53902;51.466;-2.586;2022-12-18T17:15:37;7.50;;;3.20;;
66972;SDS011;53902;51.466;-2.586;2022-12-18T17:18:03;26.98;;;5.38;;
66972;SDS011;53902;51.466;-2.586;2022-12-18T17:25:33;21.52;;;2.85;;
66972;SDS011;53902;51.466;-2.586;2022-12-18T17:27:59;3.70;;;1.73;;
66972;SDS011;53902;51.466;-2.586;2022-12-18T17:30:28;6.07;;;2.00;;
66972;SDS011;53902;51.466;-2.586;2022-12-18T17:32:53;10.98;;;1.90;;
66972;SDS011;53902;51.466;-2.586;2022-12-18T17:35:19;2.25;;;1.52;;
66972;SDS011;53902;51.466;-2.586;2022-12-18T17:37:46;3.15;;;1.63;;
66972;SDS011;53902;51.466;-2.586;2022-12-18T17:40:14;10.73;;;2.03;;
66972;SDS011;53902;51.466;-2.586;2022-12-18T17:42:39;2.75;;;1.40;;
66972;SDS011;53902;51.466;-2.586;2022-12-18T17:45:08;13.65;;;2.35;;
66972;SDS011;53902;51.466;-2.586;2022-12-18T17:47:34;2.53;;;1.40;;
66972;SDS011;53902;51.466;-2.586;2022-12-18T17:50:00;5.05;;;2.17;;
66972;SDS011;53902;51.466;-2.586;2022-12-18T17:52:25;66.97;;;3.38;;
66972;SDS011;53902;51.466;-2.586;2022-12-18T17:54:51;8.27;;;2.65;;
66972;SDS011;53902;51.466;-2.586;2022-12-18T17:57:20;55.17;;;4.35;;
66972;SDS011;53902;51.466;-2.586;2022-12-18T17:59:46;4.00;;;1.83;;
66972;SDS011;53902;51.466;-2.586;2022-12-18T18:02:12;4.95;;;2.50;;
66972;SDS011;53902;51.466;-2.586;2022-12-18T18:04:37;7.72;;;2.35;;
66972;SDS011;53902;51.466;-2.586;2022-12-18T18:07:03;40.80;;;2.85;;
66972;SDS011;53902;51.466;-2.586;2022-12-18T18:09:29;5.03;;;2.25;;
66972;SDS011;53902;51.466;-2.586;2022-12-18T18:12:00;2.33;;;1.42;;
66972;SDS011;53902;51.466;-2.586;2022-12-18T18:14:45;6.28;;;1.38;;
66972;SDS011;53902;51.466;-2.586;2022-12-18T18:17:11;1.23;;;1.13;;
66972;SDS011;53902;51.466;-2.586;2022-12-18T18:19:37;5.22;;;0.82;;
66972;SDS011;53902;51.466;-2.586;2022-12-18T18:22:14;5.97;;;1.00;;
66972;SDS011;53902;51.466;-2.586;2022-12-18T18:27:14;11.38;;;1.45;;
66972;SDS011;53902;51.466;-2.586;2022-12-18T18:40:10;8.55;;;1.40;;
66972;SDS011;53902;51.466;-2.586;2022-12-18T19:32:57;7.65;;;3.55;;
66972;SDS011;53902;51.466;-2.586;2022-12-18T19:35:44;4.25;;;1.52;;
66972;SDS011;53902;51.466;-2.586;2022-12-18T19:45:00;0.95;;;0.75;;
66972;SDS011;53902;51.466;-2.586;2022-12-18T19:54:00;6.80;;;1.30;;
66972;SDS011;53902;51.466;-2.586;2022-12-18T19:56:47;8.40;;;1.40;;
66972;SDS011;53902;51.466;-2.586;2022-12-18T19:59:51;1.02;;;0.75;;
66972;SDS011;53902;51.466;-2.586;2022-12-18T20:34:05;1.52;;;0.80;;
66972;SDS011;53902;51.466;-2.586;2022-12-18T20:36:31;3.95;;;0.90;;
66972;SDS011;53902;51.466;-2.586;2022-12-18T20:41:57;1.17;;;1.00;;
66972;SDS011;53902;51.466;-2.586;2022-12-18T21:23:05;3.97;;;1.00;;
66972;SDS011;53902;51.466;-2.586;2022-12-18T21:40:15;6.53;;;0.75;;
66972;SDS011;53902;51.466;-2.586;2022-12-18T21:45:39;3.08;;;0.80;;